createdAt,value
2022-12-17T00:00:27.719Z,101758.22
2022-12-17T00:03:17.514Z,101754.84
2022-12-17T00:06:02.706Z,101759.97
2022-12-17T00:08:48.228Z,101756.56
2022-12-17T00:11:33.488Z,101769.34
2022-12-17T00:14:18.490Z,101762.44
2022-12-17T00:17:03.515Z,101759.00
2022-12-17T00:19:48.423Z,101765.88
2022-12-17T00:22:33.449Z,101766.69
2022-12-17T00:25:18.195Z,101765.88
2022-12-17T00:28:04.219Z,101777.91
2022-12-17T00:30:49.104Z,101763.44
2022-12-17T00:33:53.850Z,101777.97
2022-12-17T00:36:38.873Z,101773.75
2022-12-17T00:39:23.959Z,101772.88
2022-12-17T00:42:08.877Z,101773.72
2022-12-17T00:44:54.735Z,101780.53
2022-12-17T00:47:41.083Z,101776.28
2022-12-17T00:50:26.985Z,101778.81
2022-12-17T00:53:12.394Z,101781.31
2022-12-17T00:55:58.328Z,101792.41
2022-12-17T00:58:43.340Z,101785.53
2022-12-17T01:01:28.316Z,101790.63
2022-12-17T01:04:13.507Z,101792.38
2022-12-17T01:06:58.276Z,101788.94
2022-12-17T01:09:43.196Z,101792.34
2022-12-17T01:12:28.021Z,101790.66
2022-12-17T01:15:12.893Z,101800.09
2022-12-17T01:17:57.813Z,101789.00
2022-12-17T01:20:42.713Z,101797.53
2022-12-17T01:23:28.064Z,101788.13
2022-12-17T01:26:14.825Z,101794.06
2022-12-17T01:29:00.589Z,101794.06
2022-12-17T01:31:46.043Z,101796.56
2022-12-17T01:34:31.153Z,101799.97
2022-12-17T01:37:16.103Z,101801.66
2022-12-17T01:40:01.000Z,101803.31
2022-12-17T01:42:45.755Z,101810.16
2022-12-17T01:45:32.635Z,101808.44
2022-12-17T01:48:21.749Z,101809.31
2022-12-17T01:51:11.199Z,101809.25
2022-12-17T01:54:05.786Z,101816.94
2022-12-17T01:56:52.760Z,101821.22
2022-12-17T01:59:48.265Z,101808.38
2022-12-17T02:02:33.389Z,101821.19
2022-12-17T02:05:18.590Z,101832.28
2022-12-17T02:08:23.463Z,101839.13
2022-12-17T02:11:18.880Z,101839.97
2022-12-17T02:14:14.615Z,101836.63
2022-12-17T02:17:08.204Z,101840.88
2022-12-17T02:20:01.166Z,101843.44
2022-12-17T02:23:12.050Z,101835.75
2022-12-17T02:26:10.969Z,101845.22
2022-12-17T02:28:58.719Z,101842.63
2022-12-17T02:31:46.328Z,101846.91
2022-12-17T02:34:31.419Z,101846.88
2022-12-17T02:37:16.306Z,101851.13
2022-12-17T02:40:01.735Z,101845.13
2022-12-17T02:42:49.480Z,101849.38
2022-12-17T02:45:36.083Z,101843.41
2022-12-17T02:48:22.403Z,101853.69
2022-12-17T02:51:07.751Z,101858.78
2022-12-17T02:54:10.073Z,101859.66
2022-12-17T02:56:55.112Z,101851.97
2022-12-17T02:59:39.938Z,101843.44
2022-12-17T03:02:25.073Z,101846.91
2022-12-17T03:05:35.664Z,101849.47
2022-12-17T03:08:15.316Z,101846.88
2022-12-17T03:11:00.723Z,101856.28
2022-12-17T03:13:48.050Z,101852.84
2022-12-17T03:16:37.664Z,101856.34
2022-12-17T03:19:23.429Z,101854.69
2022-12-17T03:22:08.136Z,101853.75
2022-12-17T03:24:52.909Z,101841.81
2022-12-17T03:27:37.684Z,101848.63
2022-12-17T03:30:23.049Z,101850.31
2022-12-17T03:33:07.797Z,101871.66
2022-12-17T03:35:52.621Z,101866.53
2022-12-17T03:38:37.700Z,101878.59
2022-12-17T03:41:22.973Z,101885.38
2022-12-17T03:44:07.891Z,101873.38
2022-12-17T03:46:52.689Z,101880.19
2022-12-17T03:49:37.675Z,101878.44
2022-12-17T03:52:22.498Z,101890.44
2022-12-17T03:55:07.486Z,101880.16
2022-12-17T03:57:52.391Z,101881.03
2022-12-17T04:00:37.244Z,101881.13
2022-12-17T04:03:22.796Z,101883.72
2022-12-17T04:06:07.540Z,101888.88
2022-12-17T04:08:52.347Z,101883.75
2022-12-17T04:11:37.645Z,101892.28
2022-12-17T04:14:22.610Z,101880.31
2022-12-17T04:17:07.514Z,101884.56
2022-12-17T04:19:52.433Z,101887.97
2022-12-17T04:22:37.341Z,101896.50
2022-12-17T04:25:22.556Z,101897.38
2022-12-17T04:28:18.084Z,101889.69
2022-12-17T04:31:04.157Z,101895.69
2022-12-17T04:33:49.365Z,101905.97
2022-12-17T04:36:34.213Z,101902.50
2022-12-17T04:39:19.212Z,101904.19
2022-12-17T04:42:03.964Z,101916.16
2022-12-17T04:44:48.859Z,101917.91
2022-12-17T04:47:33.672Z,101913.69
2022-12-17T04:50:18.538Z,101918.81
2022-12-17T04:53:03.485Z,101920.50
2022-12-17T04:55:48.338Z,101926.50
2022-12-17T04:58:33.257Z,101926.53
2022-12-17T05:01:18.231Z,101921.41
2022-12-17T05:04:03.489Z,101920.53
2022-12-17T05:06:48.623Z,101941.06
2022-12-17T05:09:33.471Z,101931.66
2022-12-17T05:12:18.164Z,101927.38
2022-12-17T05:15:03.054Z,101933.34
2022-12-17T05:17:47.921Z,101935.94
2022-12-17T05:20:33.319Z,101941.91
2022-12-17T05:23:26.913Z,101933.41
2022-12-17T05:26:39.249Z,101939.38
2022-12-17T05:29:25.115Z,101931.75
2022-12-17T05:32:10.522Z,101923.16
2022-12-17T05:34:55.775Z,101936.81
2022-12-17T05:37:42.836Z,101941.09
2022-12-17T05:40:28.915Z,101935.06
2022-12-17T05:43:19.302Z,101941.94
2022-12-17T05:46:05.127Z,101942.78
2022-12-17T05:48:51.456Z,101952.19
2022-12-17T05:51:38.814Z,101952.19
2022-12-17T05:54:25.250Z,101949.63
2022-12-17T05:57:10.836Z,101955.63
2022-12-17T05:59:56.088Z,101960.78
2022-12-17T06:02:42.225Z,101957.38
2022-12-17T06:05:28.106Z,101963.34
2022-12-17T06:08:27.184Z,101968.44
2022-12-17T06:11:13.218Z,101966.75
2022-12-17T06:13:58.080Z,101962.50
2022-12-17T06:16:43.028Z,101971.88
2022-12-17T06:19:27.828Z,101972.75
2022-12-17T06:22:12.862Z,101974.44
2022-12-17T06:24:57.680Z,101971.91
2022-12-17T06:27:42.665Z,101982.97
2022-12-17T06:30:28.111Z,101984.69
2022-12-17T06:33:29.177Z,101984.66
2022-12-17T06:36:22.166Z,101993.19
2022-12-17T06:39:08.082Z,101995.75
2022-12-17T06:41:52.818Z,101992.34
2022-12-17T06:44:45.297Z,102000.88
2022-12-17T06:47:30.493Z,101988.09
2022-12-17T06:50:15.699Z,101997.47
2022-12-17T06:53:00.553Z,102007.75
2022-12-17T06:55:45.443Z,101989.00
2022-12-17T06:58:30.300Z,102000.03
2022-12-17T07:01:15.857Z,102001.75
2022-12-17T07:04:00.895Z,102006.03
2022-12-17T07:06:45.688Z,102012.03
2022-12-17T07:09:30.516Z,102017.16
2022-12-17T07:12:15.432Z,102024.84
2022-12-17T07:15:00.862Z,102015.44
2022-12-17T07:17:47.132Z,102033.31
2022-12-17T07:20:31.897Z,102027.41
2022-12-17T07:23:16.589Z,102037.59
2022-12-17T07:26:01.521Z,102038.44
2022-12-17T07:28:46.390Z,102035.91
2022-12-17T07:31:31.225Z,102041.91
2022-12-17T07:34:16.444Z,102049.56
2022-12-17T07:37:01.234Z,102053.84
2022-12-17T07:39:46.157Z,102054.69
2022-12-17T07:42:31.074Z,102065.78
2022-12-17T07:45:16.003Z,102068.34
2022-12-17T07:48:00.974Z,102074.28
2022-12-17T07:50:45.821Z,102076.00
2022-12-17T07:53:30.796Z,102070.00
2022-12-17T07:56:15.715Z,102078.53
2022-12-17T07:59:00.705Z,102083.69
2022-12-17T08:01:45.550Z,102079.38
2022-12-17T08:04:30.860Z,102092.16
2022-12-17T08:07:15.663Z,102086.19
2022-12-17T08:10:00.633Z,102084.50
2022-12-17T08:12:45.621Z,102081.97
2022-12-17T08:15:30.516Z,102094.72
2022-12-17T08:18:26.479Z,102098.16
2022-12-17T08:21:12.793Z,102086.22
2022-12-17T08:23:57.661Z,102090.47
2022-12-17T08:26:47.592Z,102100.66
2022-12-17T08:29:33.427Z,102110.91
2022-12-17T08:32:18.848Z,102114.31
2022-12-17T08:35:03.908Z,102119.38
2022-12-17T08:37:49.532Z,102114.19
2022-12-17T08:40:34.232Z,102110.75
2022-12-17T08:43:19.251Z,102114.94
2022-12-17T08:46:06.752Z,102114.94
2022-12-17T08:48:52.354Z,102109.00
2022-12-17T08:51:37.782Z,102109.84
2022-12-17T08:54:22.782Z,102111.59
2022-12-17T08:57:07.761Z,102115.78
2022-12-17T08:59:52.571Z,102121.69
2022-12-17T09:02:37.693Z,102123.44
2022-12-17T09:05:23.466Z,102117.50
2022-12-17T09:08:08.350Z,102128.63
2022-12-17T09:10:53.303Z,102122.69
2022-12-17T09:13:38.511Z,102137.97
2022-12-17T09:16:24.439Z,102143.94
2022-12-17T09:19:09.544Z,102142.25
2022-12-17T09:22:09.023Z,102144.78
2022-12-17T09:24:55.976Z,102150.66
2022-12-17T09:27:40.754Z,102145.59
2022-12-17T09:30:26.343Z,102137.09
2022-12-17T09:33:11.536Z,102146.41
2022-12-17T09:35:57.740Z,102139.59
2022-12-17T09:38:43.133Z,102151.59
2022-12-17T09:41:44.295Z,102154.94
2022-12-17T09:44:32.333Z,102157.44
2022-12-17T09:47:55.316Z,102158.28
2022-12-17T09:50:40.534Z,102154.00
2022-12-17T09:53:41.315Z,102161.66
2022-12-17T09:56:30.721Z,102165.91
2022-12-17T09:59:15.452Z,102163.34
2022-12-17T10:02:00.686Z,102176.97
2022-12-17T10:05:05.229Z,102174.44
2022-12-17T10:07:54.925Z,102174.47
2022-12-17T10:10:45.345Z,102178.75
2022-12-17T10:13:40.027Z,102174.53
2022-12-17T10:16:44.403Z,102190.63
2022-12-17T10:19:40.930Z,102188.84
2022-12-17T10:22:28.438Z,102180.47
2022-12-17T10:25:13.302Z,102183.91
2022-12-17T10:27:58.818Z,102182.16
2022-12-17T10:31:01.277Z,102194.03
2022-12-17T10:33:46.174Z,102194.03
2022-12-17T10:36:40.633Z,102191.56
2022-12-17T10:39:30.552Z,102183.00
2022-12-17T10:42:15.516Z,102196.59
2022-12-17T10:45:00.489Z,102187.25
2022-12-17T10:47:46.467Z,102190.69
2022-12-17T10:50:40.928Z,102204.31
2022-12-17T10:53:41.904Z,102195.88
2022-12-17T10:56:40.315Z,102193.31
2022-12-17T10:59:32.300Z,102201.75
2022-12-17T11:02:18.420Z,102200.81
2022-12-17T11:05:12.610Z,102198.28
2022-12-17T11:08:01.330Z,102202.63
2022-12-17T11:10:49.640Z,102195.78
2022-12-17T11:13:40.133Z,102191.59
2022-12-17T11:16:35.125Z,102197.59
2022-12-17T11:19:29.652Z,102199.28
2022-12-17T11:22:25.743Z,102198.38
2022-12-17T11:25:31.773Z,102204.31
2022-12-17T11:28:53.219Z,102203.44
2022-12-17T11:31:47.398Z,102195.84
2022-12-17T11:35:03.320Z,102209.50
2022-12-17T11:38:30.488Z,102207.75
2022-12-17T11:41:55.944Z,102210.25
2022-12-17T11:45:01.500Z,102205.06
2022-12-17T11:47:56.193Z,102203.41
2022-12-17T11:50:51.332Z,102195.69
2022-12-17T11:54:11.975Z,102197.53
2022-12-17T11:57:02.747Z,102195.03
2022-12-17T11:59:57.112Z,102194.19
2022-12-17T12:02:55.004Z,102201.03
2022-12-17T12:06:05.073Z,102200.19
2022-12-17T12:08:55.614Z,102208.78
2022-12-17T12:11:52.240Z,102201.97
2022-12-17T12:14:59.824Z,102201.09
2022-12-17T12:18:29.573Z,102202.75
2022-12-17T12:21:23.959Z,102196.75
2022-12-17T12:24:49.716Z,102197.59
2022-12-17T12:27:43.357Z,102195.94
2022-12-17T12:30:42.041Z,102192.59
2022-12-17T12:33:49.017Z,102194.28
2022-12-17T12:36:37.630Z,102185.75
2022-12-17T12:39:23.940Z,102184.00
2022-12-17T12:42:12.210Z,102191.66
2022-12-17T12:45:06.372Z,102179.69
2022-12-17T12:48:13.548Z,102186.47
2022-12-17T12:51:04.369Z,102187.25
2022-12-17T12:53:49.436Z,102180.50
2022-12-17T12:57:04.215Z,102182.22
2022-12-17T12:59:53.059Z,102188.19
2022-12-17T13:02:50.393Z,102194.91
2022-12-17T13:05:35.132Z,102182.16
2022-12-17T13:08:07.531Z,102183.97
2022-12-17T13:10:35.998Z,102184.81
2022-12-17T13:13:30.256Z,102177.88
2022-12-17T13:16:03.583Z,102168.53
2022-12-17T13:18:40.758Z,102163.41
2022-12-17T13:21:16.598Z,102167.69
2022-12-17T13:23:43.633Z,102164.28
2022-12-17T13:26:15.928Z,102160.00
2022-12-17T13:28:47.896Z,102162.63
2022-12-17T13:31:27.020Z,102155.88
2022-12-17T13:34:08.889Z,102162.72
2022-12-17T13:37:03.257Z,102162.75
2022-12-17T13:40:02.216Z,102155.97
2022-12-17T13:42:34.875Z,102144.91
2022-12-17T13:45:02.177Z,102152.59
2022-12-17T13:47:32.511Z,102140.69
2022-12-17T13:50:32.599Z,102144.13
2022-12-17T13:52:48.257Z,102149.25
2022-12-17T13:55:21.221Z,102152.69
2022-12-17T13:57:49.236Z,102156.09
2022-12-17T14:00:24.651Z,102154.41
2022-12-17T14:02:52.892Z,102156.13
2022-12-17T14:05:38.239Z,102152.72
2022-12-17T14:08:05.903Z,102161.25
2022-12-17T14:10:32.869Z,102162.97
2022-12-17T14:13:06.279Z,102157.84
2022-12-17T14:15:33.274Z,102155.28
2022-12-17T14:18:00.672Z,102159.56
2022-12-17T14:20:32.278Z,102172.38
2022-12-17T14:23:06.120Z,102168.13
2022-12-17T14:25:37.965Z,102164.69
2022-12-17T14:28:06.254Z,102162.13
2022-12-17T14:31:02.944Z,102174.94
2022-12-17T14:33:31.398Z,102174.91
2022-12-17T14:36:00.518Z,102176.63
2022-12-17T14:38:37.901Z,102180.84
2022-12-17T14:41:37.760Z,102176.59
2022-12-17T14:44:05.430Z,102180.03
2022-12-17T14:46:34.581Z,102181.72
2022-12-17T14:49:04.933Z,102178.31
2022-12-17T14:51:38.511Z,102178.28
2022-12-17T14:54:25.680Z,102179.97
2022-12-17T14:56:54.691Z,102181.66
2022-12-17T14:59:34.253Z,102182.53
2022-12-17T15:02:05.458Z,102186.75
2022-12-17T15:04:32.669Z,102185.03
2022-12-17T15:06:59.402Z,102177.34
2022-12-17T15:09:25.975Z,102181.59
2022-12-17T15:11:52.501Z,102177.34
2022-12-17T15:14:18.993Z,102174.78
2022-12-17T15:16:46.329Z,102174.78
2022-12-17T15:19:12.962Z,102170.47
2022-12-17T15:21:39.642Z,102173.88
2022-12-17T15:24:10.323Z,102177.28
2022-12-17T15:26:36.785Z,102184.09
2022-12-17T15:29:03.247Z,102173.03
2022-12-17T15:31:35.208Z,102181.56
2022-12-17T15:34:02.237Z,102189.22
2022-12-17T15:36:31.818Z,102191.75
2022-12-17T15:38:59.007Z,102187.47
2022-12-17T15:41:44.152Z,102195.16
2022-12-17T15:44:10.624Z,102196.84
2022-12-17T15:46:37.186Z,102197.66
2022-12-17T15:49:03.888Z,102191.66
2022-12-17T15:51:30.468Z,102194.19
2022-12-17T15:53:56.976Z,102195.91
2022-12-17T15:56:25.735Z,102185.63
2022-12-17T15:58:52.502Z,102195.00
2022-12-17T16:01:19.954Z,102200.91
2022-12-17T16:03:47.125Z,102194.09
2022-12-17T16:06:13.798Z,102200.84
2022-12-17T16:08:40.807Z,102200.81
2022-12-17T16:11:12.286Z,102203.34
2022-12-17T16:13:38.807Z,102201.59
2022-12-17T16:16:06.657Z,102212.63
2022-12-17T16:18:33.238Z,102217.72
2022-12-17T16:21:05.318Z,102216.88
2022-12-17T16:23:33.101Z,102207.47
2022-12-17T16:26:01.615Z,102215.09
2022-12-17T16:28:29.804Z,102214.19
2022-12-17T16:31:03.409Z,102217.53
2022-12-17T16:33:38.497Z,102217.47
2022-12-17T16:36:06.868Z,102214.00
2022-12-17T16:38:34.345Z,102225.84
2022-12-17T16:41:03.377Z,102227.53
2022-12-17T16:43:33.933Z,102221.56
2022-12-17T16:46:00.529Z,102227.41
2022-12-17T16:48:27.062Z,102233.34
2022-12-17T16:50:53.629Z,102233.31
2022-12-17T16:53:20.367Z,102225.63
2022-12-17T16:55:49.083Z,102226.44
2022-12-17T16:58:17.703Z,102239.16
2022-12-17T17:00:45.648Z,102236.56
2022-12-17T17:03:12.593Z,102233.19
2022-12-17T17:05:39.895Z,102241.69
2022-12-17T17:08:07.478Z,102235.78
2022-12-17T17:10:36.989Z,102247.69
2022-12-17T17:13:04.185Z,102236.63
2022-12-17T17:15:32.483Z,102243.44
2022-12-17T17:18:02.507Z,102237.47
2022-12-17T17:20:32.365Z,102231.53
2022-12-17T17:22:59.773Z,102236.66
2022-12-17T17:25:43.994Z,102240.97
2022-12-17T17:28:12.900Z,102245.25
2022-12-17T17:30:39.407Z,102244.44
2022-12-17T17:33:05.860Z,102243.56
2022-12-17T17:35:32.428Z,102240.19
2022-12-17T17:37:58.942Z,102237.66
2022-12-17T17:40:25.930Z,102249.56
2022-12-17T17:42:53.271Z,102243.63
2022-12-17T17:45:19.906Z,102242.78
2022-12-17T17:47:46.415Z,102243.63
2022-12-17T17:50:12.877Z,102245.28
2022-12-17T17:52:39.365Z,102238.47
2022-12-17T17:55:06.436Z,102245.25
2022-12-17T17:57:32.940Z,102242.66
2022-12-17T17:59:59.434Z,102247.66
2022-12-17T18:02:26.102Z,102241.66
2022-12-17T18:04:52.790Z,102247.53
2022-12-17T18:07:27.535Z,102260.34
2022-12-17T18:09:55.152Z,102256.00
2022-12-17T18:12:41.242Z,102261.06
2022-12-17T18:15:17.260Z,102238.88
2022-12-17T18:17:51.081Z,102249.97
2022-12-17T18:20:17.936Z,102249.91
2022-12-17T18:22:46.369Z,102256.72
2022-12-17T18:25:13.232Z,102251.56
2022-12-17T18:27:39.795Z,102252.44
2022-12-17T18:30:06.973Z,102247.34
2022-12-17T18:32:33.523Z,102250.78
2022-12-17T18:35:00.131Z,102253.34
2022-12-17T18:37:26.707Z,102260.16
2022-12-17T18:39:53.193Z,102248.28
2022-12-17T18:42:38.219Z,102255.88
2022-12-17T18:45:05.279Z,102249.91
2022-12-17T18:47:31.766Z,102247.31
2022-12-17T18:49:58.288Z,102249.06
2022-12-17T18:52:25.026Z,102260.09
2022-12-17T18:54:51.568Z,102253.25
2022-12-17T18:57:18.050Z,102266.81
2022-12-17T18:59:44.531Z,102261.72
2022-12-17T19:02:12.884Z,102264.25
2022-12-17T19:04:41.172Z,102271.06
2022-12-17T19:07:07.763Z,102265.91
2022-12-17T19:09:35.731Z,102267.59
2022-12-17T19:12:05.116Z,102276.88
2022-12-17T19:14:31.715Z,102281.97
2022-12-17T19:16:58.539Z,102286.22
2022-12-17T19:19:26.075Z,102288.78
2022-12-17T19:22:00.173Z,102279.47
2022-12-17T19:24:26.806Z,102270.03
2022-12-17T19:26:53.360Z,102285.31
2022-12-17T19:29:21.129Z,102273.44
2022-12-17T19:31:48.201Z,102270.81
2022-12-17T19:34:16.464Z,102275.75
2022-12-17T19:36:43.935Z,102279.94
2022-12-17T19:39:16.923Z,102273.97
2022-12-17T19:41:44.284Z,102273.09
2022-12-17T19:44:16.044Z,102273.91
2022-12-17T19:46:43.068Z,102283.31
2022-12-17T19:49:14.323Z,102281.59
2022-12-17T19:51:42.914Z,102285.81
2022-12-17T19:54:12.344Z,102286.66
2022-12-17T19:56:39.344Z,102296.88
2022-12-17T19:59:07.657Z,102302.91
2022-12-17T20:01:41.971Z,102301.25
2022-12-17T20:04:11.312Z,102301.25
2022-12-17T20:06:37.752Z,102287.56
2022-12-17T20:09:05.539Z,102300.34
2022-12-17T20:11:35.761Z,102306.25
2022-12-17T20:14:16.208Z,102304.69
2022-12-17T20:16:48.671Z,102315.78
2022-12-17T20:19:18.301Z,102314.13
2022-12-17T20:21:45.288Z,102321.75
2022-12-17T20:24:12.995Z,102314.06
2022-12-17T20:26:40.380Z,102316.72
2022-12-17T20:29:07.377Z,102314.22
2022-12-17T20:31:34.665Z,102318.50
2022-12-17T20:34:03.454Z,102321.09
2022-12-17T20:36:30.135Z,102321.06
2022-12-17T20:38:57.043Z,102320.22
2022-12-17T20:41:27.618Z,102324.47
2022-12-17T20:43:55.163Z,102316.81
2022-12-17T20:46:24.022Z,102321.00
2022-12-17T20:48:51.105Z,102326.09
2022-12-17T20:51:24.071Z,102332.03
2022-12-17T20:53:52.417Z,102337.13
2022-12-17T20:56:23.122Z,102339.72
2022-12-17T20:58:54.135Z,102335.47
2022-12-17T21:01:22.607Z,102336.38
2022-12-17T21:03:51.685Z,102342.44
2022-12-17T21:06:21.377Z,102329.72
2022-12-17T21:08:50.592Z,102341.66
2022-12-17T21:11:26.632Z,102334.00
2022-12-17T21:13:54.151Z,102328.03
2022-12-17T21:16:26.997Z,102328.00
2022-12-17T21:18:55.005Z,102329.63
2022-12-17T21:21:24.510Z,102324.47
2022-12-17T21:23:51.182Z,102319.34
2022-12-17T21:26:22.220Z,102317.66
2022-12-17T21:28:51.744Z,102327.06
2022-12-17T21:31:26.607Z,102323.63
2022-12-17T21:33:56.818Z,102321.13
2022-12-17T21:36:24.598Z,102315.19
2022-12-17T21:38:52.223Z,102311.69
2022-12-17T21:41:24.238Z,102319.41
2022-12-17T21:43:56.130Z,102310.94
2022-12-17T21:46:23.600Z,102316.91
2022-12-17T21:48:51.896Z,102318.63
2022-12-17T21:51:18.351Z,102308.31
2022-12-17T21:53:45.087Z,102316.03
2022-12-17T21:56:16.929Z,102327.03
2022-12-17T21:58:44.940Z,102335.59
2022-12-17T22:01:22.075Z,102334.78
2022-12-17T22:03:53.411Z,102333.84
2022-12-17T22:06:24.457Z,102338.13
2022-12-17T22:08:54.422Z,102337.25
2022-12-17T22:11:25.534Z,102334.66
2022-12-17T22:14:13.774Z,102333.81
2022-12-17T22:16:47.183Z,102346.53
2022-12-17T22:19:17.651Z,102332.00
2022-12-17T22:21:47.823Z,102338.91
2022-12-17T22:24:19.463Z,102343.91
2022-12-17T22:26:46.844Z,102343.97
2022-12-17T22:29:34.422Z,102346.44
2022-12-17T22:32:19.668Z,102349.94
2022-12-17T22:36:16.435Z,102347.31
2022-12-17T22:39:14.115Z,102350.78
2022-12-17T22:43:21.615Z,102342.25
2022-12-17T22:44:45.327Z,102338.84
2022-12-17T22:46:18.996Z,102344.84
2022-12-17T22:48:45.917Z,102353.34
2022-12-17T22:51:16.686Z,102352.50
2022-12-17T22:53:46.437Z,102363.44
2022-12-17T22:56:34.916Z,102356.75
2022-12-17T22:58:59.642Z,102360.97
2022-12-17T23:01:26.642Z,102350.84
2022-12-17T23:03:57.962Z,102358.28
2022-12-17T23:06:24.757Z,102352.34
2022-12-17T23:08:51.636Z,102342.88
2022-12-17T23:11:27.943Z,102346.31
2022-12-17T23:13:55.213Z,102353.13
2022-12-17T23:16:22.018Z,102361.63
2022-12-17T23:18:50.483Z,102354.78
2022-12-17T23:21:20.789Z,102356.47
2022-12-17T23:23:47.563Z,102341.19
2022-12-17T23:26:23.485Z,102345.38
2022-12-17T23:28:58.512Z,102340.28
2022-12-17T23:31:27.268Z,102333.44
2022-12-17T23:33:53.823Z,102342.75
2022-12-17T23:36:21.666Z,102331.69
2022-12-17T23:38:49.408Z,102343.66
2022-12-17T23:41:18.349Z,102338.53
2022-12-17T23:43:45.884Z,102344.56
2022-12-17T23:46:12.763Z,102339.44
2022-12-17T23:48:45.268Z,102340.22
2022-12-17T23:51:14.502Z,102332.53
2022-12-17T23:53:41.850Z,102333.38
2022-12-17T23:56:10.359Z,102321.41
2022-12-17T23:58:38.614Z,102340.03
